Time;durP1;ratioP1;P1;durP2;ratioP2;P2;SDS_P1;SDS_P2;PMS_P1;PMS_P2;Temp;Humidity;BMP_temperature;BMP_pressure;BME280_temperature;BME280_humidity;BME280_pressure;Samples;Min_cycle;Max_cycle;Signal;HPM_P1;HPM_P2
2022/04/15 00:00:41;;;;;;;10.52;7.55;;;7.00;99.90;;;;;;5059426;28;20123;-78
2022/04/15 00:03:07;;;;;;;8.45;7.30;;;7.00;99.90;;;;;;5037243;28;20446;-78
2022/04/15 00:05:37;;;;;;;11.63;7.43;;;7.10;99.90;;;;;;5045577;28;20133;-78
2022/04/15 00:08:06;;;;;;;11.15;7.80;;;7.20;99.90;;;;;;5065861;28;20088;-78
2022/04/15 00:10:33;;;;;;;11.15;7.75;;;7.30;99.90;;;;;;5051999;28;20490;-77
2022/04/15 00:12:59;;;;;;;10.13;7.80;;;7.30;99.90;;;;;;5050199;28;20037;-78
2022/04/15 00:15:25;;;;;;;9.30;7.53;;;7.40;99.90;;;;;;5049821;28;20048;-78
2022/04/15 00:17:51;;;;;;;11.48;7.75;;;7.40;99.90;;;;;;5025063;28;20382;-77
2022/04/15 00:20:17;;;;;;;9.35;7.75;;;7.50;99.90;;;;;;5053438;28;20037;-78
2022/04/15 00:22:43;;;;;;;11.73;8.30;;;7.50;99.90;;;;;;5066385;28;20045;-77
2022/04/15 00:25:10;;;;;;;13.60;8.15;;;7.50;99.90;;;;;;5049096;28;20048;-78
2022/04/15 00:27:36;;;;;;;15.23;8.38;;;7.50;99.90;;;;;;5055235;28;20056;-78
2022/04/15 00:30:03;;;;;;;12.60;7.65;;;7.60;99.90;;;;;;5051902;28;20045;-78
2022/04/15 00:32:29;;;;;;;12.85;8.60;;;7.60;99.90;;;;;;5044936;28;20080;-78
2022/04/15 00:34:54;;;;;;;10.80;8.18;;;7.60;99.90;;;;;;5065378;28;20076;-78
2022/04/15 00:37:20;;;;;;;9.57;7.97;;;7.70;99.90;;;;;;5051086;28;20068;-78
2022/04/15 00:39:46;;;;;;;11.20;7.70;;;7.70;99.90;;;;;;5069367;28;20036;-78
2022/04/15 00:42:12;;;;;;;11.23;8.48;;;7.80;99.90;;;;;;5033863;28;20072;-79
2022/04/15 00:44:38;;;;;;;10.60;7.82;;;7.80;99.90;;;;;;5055909;28;20052;-78
2022/04/15 00:47:09;;;;;;;7.97;7.00;;;7.90;99.90;;;;;;5051070;28;20033;-78
2022/04/15 00:49:35;;;;;;;12.07;7.30;;;7.90;99.90;;;;;;5050802;28;20163;-79
2022/04/15 00:52:02;;;;;;;9.63;7.20;;;7.90;99.90;;;;;;5035214;28;20139;-78
2022/04/15 00:54:30;;;;;;;11.45;7.57;;;8.00;99.90;;;;;;5051536;28;20049;-79
2022/04/15 00:57:00;;;;;;;9.30;7.32;;;8.00;99.90;;;;;;5033059;28;20498;-78
2022/04/15 00:59:26;;;;;;;15.82;7.95;;;8.00;99.90;;;;;;5054799;28;20088;-79
2022/04/15 01:01:52;;;;;;;11.90;7.82;;;8.00;99.90;;;;;;5052616;28;20068;-79
2022/04/15 01:04:19;;;;;;;9.73;7.35;;;8.10;99.90;;;;;;5054731;28;20493;-78
2022/04/15 01:06:47;;;;;;;10.10;6.80;;;8.10;99.90;;;;;;5050408;28;20119;-78
2022/04/15 01:09:14;;;;;;;12.45;7.10;;;8.20;99.90;;;;;;5051957;28;20391;-78
2022/04/15 01:11:43;;;;;;;7.90;6.78;;;8.20;99.90;;;;;;5052025;28;20048;-79
2022/04/15 01:14:10;;;;;;;11.25;7.32;;;8.20;99.90;;;;;;5047997;28;20044;-78
2022/04/15 01:16:36;;;;;;;9.27;7.30;;;8.20;99.90;;;;;;5056560;28;20086;-78
2022/04/15 01:19:01;;;;;;;11.25;7.53;;;8.20;99.90;;;;;;5051085;28;20041;-78
2022/04/15 01:21:32;;;;;;;11.70;7.43;;;8.20;99.90;;;;;;5049500;28;20531;-79
2022/04/15 01:23:58;;;;;;;9.90;7.22;;;8.20;99.90;;;;;;5052618;28;20041;-78
2022/04/15 01:26:24;;;;;;;13.23;7.00;;;8.30;99.90;;;;;;5051603;28;20036;-79
2022/04/15 01:28:49;;;;;;;8.68;6.85;;;8.30;99.90;;;;;;5034670;28;20099;-78
2022/04/15 01:31:15;;;;;;;10.13;6.72;;;8.30;99.90;;;;;;5048984;28;20463;-79
2022/04/15 01:33:41;;;;;;;10.43;7.00;;;8.40;99.90;;;;;;5046609;28;20041;-78
2022/04/15 01:36:06;;;;;;;10.57;7.70;;;8.40;99.90;;;;;;5047154;28;20482;-78
2022/04/15 01:38:32;;;;;;;9.10;6.57;;;8.40;99.90;;;;;;5050618;28;20049;-78
2022/04/15 01:40:58;;;;;;;11.60;7.18;;;8.40;99.90;;;;;;5051826;28;20070;-78
2022/04/15 01:43:24;;;;;;;10.77;7.20;;;8.40;99.90;;;;;;5046496;28;20045;-78
2022/04/15 01:45:49;;;;;;;8.93;6.80;;;8.40;99.90;;;;;;5045286;28;20068;-78
2022/04/15 01:48:15;;;;;;;12.35;7.35;;;8.40;99.90;;;;;;5050504;28;20086;-78
2022/04/15 01:50:41;;;;;;;13.80;7.40;;;8.40;99.90;;;;;;5050042;28;20052;-78
2022/04/15 01:53:06;;;;;;;10.05;6.88;;;8.40;99.90;;;;;;5033587;28;20040;-78
2022/04/15 01:55:32;;;;;;;9.68;7.50;;;8.40;99.90;;;;;;5039207;28;20546;-78
2022/04/15 01:57:57;;;;;;;8.52;6.70;;;8.40;99.90;;;;;;5027544;28;20087;-78
2022/04/15 02:00:23;;;;;;;8.70;7.03;;;8.50;99.90;;;;;;5034821;28;20029;-78
2022/04/15 02:02:49;;;;;;;10.27;6.90;;;8.50;99.90;;;;;;5049572;28;20045;-78
2022/04/15 02:05:14;;;;;;;9.25;6.80;;;8.50;99.90;;;;;;5050127;28;20045;-78
2022/04/15 02:07:40;;;;;;;9.15;7.35;;;8.50;99.90;;;;;;5051234;28;20033;-78
2022/04/15 02:10:06;;;;;;;12.15;7.68;;;8.50;99.90;;;;;;5048931;28;20090;-78
2022/04/15 02:12:32;;;;;;;9.13;7.15;;;8.60;99.90;;;;;;5032883;28;20116;-78
2022/04/15 02:14:58;;;;;;;11.35;7.43;;;8.60;99.90;;;;;;5048765;28;20167;-78
2022/04/15 02:17:23;;;;;;;9.85;7.25;;;8.60;99.90;;;;;;5047939;28;20044;-78
2022/04/15 02:19:50;;;;;;;9.98;6.50;;;8.60;99.90;;;;;;5050821;28;20048;-78
2022/04/15 02:22:16;;;;;;;7.50;5.82;;;8.60;99.90;;;;;;5051157;28;20478;-78
2022/04/15 02:24:41;;;;;;;5.53;4.45;;;8.60;99.90;;;;;;5061321;28;20032;-78
2022/04/15 02:27:07;;;;;;;6.43;4.50;;;8.70;99.90;;;;;;5049970;28;20381;-78
2022/04/15 02:29:33;;;;;;;7.25;4.78;;;8.70;99.90;;;;;;5044701;28;20666;-78
2022/04/15 02:31:59;;;;;;;6.18;5.20;;;8.70;99.90;;;;;;5050285;28;20532;-78
2022/04/15 02:34:24;;;;;;;8.10;5.63;;;8.70;99.90;;;;;;5051918;28;20033;-78
2022/04/15 02:36:50;;;;;;;7.40;5.22;;;8.80;99.90;;;;;;5047787;28;20048;-78
2022/04/15 02:39:16;;;;;;;7.00;5.72;;;8.80;99.90;;;;;;5048909;28;20045;-78
2022/04/15 02:41:42;;;;;;;11.60;5.28;;;8.80;99.90;;;;;;5032875;28;20044;-78
2022/04/15 02:44:08;;;;;;;7.75;5.35;;;8.80;99.90;;;;;;5047556;28;20036;-78
2022/04/15 02:46:34;;;;;;;6.57;4.93;;;8.80;99.90;;;;;;5029020;28;20364;-78
2022/04/15 02:49:00;;;;;;;8.35;4.85;;;8.80;99.90;;;;;;5047713;28;20072;-78
2022/04/15 02:51:25;;;;;;;9.23;4.85;;;8.80;99.90;;;;;;5048449;28;20470;-78
2022/04/15 02:53:51;;;;;;;6.20;4.40;;;8.80;99.90;;;;;;5058473;28;20063;-78
2022/04/15 02:56:17;;;;;;;9.93;4.65;;;8.80;99.90;;;;;;5048489;28;20071;-78
2022/04/15 02:58:42;;;;;;;5.93;4.43;;;8.80;99.90;;;;;;5049743;28;20076;-78
2022/04/15 03:01:08;;;;;;;5.28;4.40;;;8.80;99.90;;;;;;5031897;28;20124;-78
2022/04/15 03:03:34;;;;;;;5.30;4.20;;;8.80;99.90;;;;;;5040148;28;20032;-78
2022/04/15 03:06:02;;;;;;;7.80;4.15;;;8.90;99.90;;;;;;5032867;28;20033;-78
2022/04/15 03:08:30;;;;;;;6.07;4.35;;;8.90;99.90;;;;;;5049835;28;20045;-78
2022/04/15 03:10:57;;;;;;;7.05;4.50;;;8.90;99.90;;;;;;5038511;28;20072;-78
2022/04/15 03:13:23;;;;;;;6.78;4.22;;;8.90;99.90;;;;;;5047680;28;20086;-78
2022/04/15 03:15:49;;;;;;;4.95;3.40;;;8.90;99.90;;;;;;5048101;28;20041;-78
2022/04/15 03:18:15;;;;;;;4.95;2.95;;;8.80;99.90;;;;;;5046727;28;20541;-78
2022/04/15 03:20:42;;;;;;;6.13;3.10;;;8.90;99.90;;;;;;5033388;28;20063;-79
2022/04/15 03:23:08;;;;;;;6.57;3.00;;;8.90;99.90;;;;;;5050154;28;20045;-79
2022/04/15 03:25:34;;;;;;;4.63;2.83;;;8.80;99.90;;;;;;5050863;28;20116;-79
2022/04/15 03:28:00;;;;;;;5.72;3.20;;;8.80;99.90;;;;;;5054811;28;20135;-78
2022/04/15 03:30:26;;;;;;;4.85;3.35;;;8.80;99.90;;;;;;5049396;28;20466;-78
2022/04/15 03:32:53;;;;;;;12.40;7.18;;;8.80;99.90;;;;;;5057001;28;20394;-78
2022/04/15 03:35:21;;;;;;;10.43;7.43;;;8.70;99.90;;;;;;5049385;28;20087;-79
2022/04/15 03:37:51;;;;;;;10.60;8.68;;;8.80;99.90;;;;;;5065851;28;20516;-79
2022/04/15 03:40:18;;;;;;;11.68;8.85;;;8.70;99.90;;;;;;5038315;28;20111;-79
2022/04/15 03:42:49;;;;;;;14.40;11.30;;;8.70;99.90;;;;;;5055821;28;20375;-79
2022/04/15 03:45:18;;;;;;;14.30;10.05;;;8.60;99.90;;;;;;5036858;28;20112;-78
2022/04/15 03:47:44;;;;;;;13.40;10.63;;;8.60;99.90;;;;;;5053967;28;20040;-79
2022/04/15 03:50:10;;;;;;;11.75;9.93;;;8.60;99.90;;;;;;5023715;28;20048;-78
2022/04/15 03:52:42;;;;;;;11.32;9.57;;;8.70;99.90;;;;;;5052331;28;20071;-79
2022/04/15 03:55:15;;;;;;;10.63;9.60;;;8.60;99.90;;;;;;5053345;28;20049;-78
2022/04/15 03:57:41;;;;;;;10.48;8.73;;;8.60;99.90;;;;;;5065730;28;20036;-78
2022/04/15 04:00:09;;;;;;;9.60;8.60;;;8.50;99.90;;;;;;5068639;28;20433;-78
2022/04/15 04:02:35;;;;;;;9.40;8.50;;;8.40;99.90;;;;;;5037033;28;20074;-78
2022/04/15 04:05:00;;;;;;;8.82;7.93;;;8.40;99.90;;;;;;5053486;28;20437;-78
2022/04/15 04:07:26;;;;;;;7.88;7.07;;;8.40;99.90;;;;;;5053580;28;20037;-78
2022/04/15 04:09:52;;;;;;;7.35;6.32;;;8.30;99.90;;;;;;5051899;28;20071;-79
2022/04/15 04:12:17;;;;;;;7.13;5.70;;;8.20;99.90;;;;;;5036812;28;20048;-79
2022/04/15 04:14:43;;;;;;;6.75;5.78;;;8.20;99.90;;;;;;5053473;28;20044;-78
2022/04/15 04:17:08;;;;;;;5.93;5.43;;;8.10;99.90;;;;;;5053993;28;20545;-79
2022/04/15 04:19:34;;;;;;;6.03;5.53;;;8.10;99.90;;;;;;5052214;28;20480;-78
2022/04/15 04:22:00;;;;;;;6.45;5.80;;;8.00;99.90;;;;;;5053178;28;20120;-78
2022/04/15 04:24:25;;;;;;;6.35;5.75;;;8.00;99.90;;;;;;5037840;28;20040;-78
2022/04/15 04:26:51;;;;;;;6.32;5.72;;;8.00;99.90;;;;;;5046409;28;20379;-78
2022/04/15 04:29:16;;;;;;;7.95;5.60;;;8.10;99.90;;;;;;5053132;28;20114;-78
2022/04/15 04:31:42;;;;;;;6.07;5.47;;;8.10;99.90;;;;;;5052956;28;20053;-79
2022/04/15 04:34:07;;;;;;;5.93;5.35;;;8.20;99.90;;;;;;5053070;28;20048;-81
2022/04/15 04:36:33;;;;;;;6.85;6.18;;;8.20;99.90;;;;;;5054021;28;20033;-78
2022/04/15 04:38:59;;;;;;;8.20;6.30;;;8.20;99.90;;;;;;5053019;28;20049;-78
2022/04/15 04:41:24;;;;;;;7.65;5.80;;;8.20;99.90;;;;;;5035698;28;20036;-79
2022/04/15 04:43:50;;;;;;;6.97;5.80;;;8.20;99.90;;;;;;5042076;28;20372;-79
2022/04/15 04:46:16;;;;;;;7.20;6.07;;;8.20;99.90;;;;;;5052206;28;20555;-79
2022/04/15 04:48:41;;;;;;;6.32;5.68;;;8.20;99.90;;;;;;5050356;28;20491;-78
2022/04/15 04:51:07;;;;;;;6.38;5.75;;;8.20;99.90;;;;;;5051692;28;20124;-79
2022/04/15 04:53:33;;;;;;;6.72;5.97;;;8.30;99.90;;;;;;5068849;28;20044;-78
2022/04/15 04:55:58;;;;;;;8.07;6.20;;;8.30;99.90;;;;;;5052018;28;20119;-78
2022/04/15 04:58:24;;;;;;;6.50;5.30;;;8.30;99.90;;;;;;5050656;28;20037;-79
2022/04/15 05:00:49;;;;;;;5.88;5.28;;;8.30;99.90;;;;;;5060795;28;20100;-79
2022/04/15 05:03:15;;;;;;;12.13;5.63;;;8.30;99.90;;;;;;5057524;28;20119;-80
2022/04/15 05:05:40;;;;;;;5.60;4.90;;;8.30;99.90;;;;;;5052070;28;20136;-79
2022/04/15 05:08:06;;;;;;;28.95;6.45;;;8.40;99.90;;;;;;5048556;28;20344;-78
2022/04/15 05:10:32;;;;;;;6.35;5.30;;;8.30;99.90;;;;;;5035339;28;20072;-78
2022/04/15 05:12:59;;;;;;;6.13;5.40;;;8.30;99.90;;;;;;5051567;28;20075;-79
2022/04/15 05:15:25;;;;;;;5.82;4.13;;;8.30;99.90;;;;;;5047352;28;20525;-78
2022/04/15 05:17:50;;;;;;;8.57;4.47;;;8.30;99.90;;;;;;5034649;28;20044;-79
2022/04/15 05:20:16;;;;;;;4.10;3.70;;;8.40;99.90;;;;;;5051865;28;20037;-78
2022/04/15 05:22:41;;;;;;;4.38;3.88;;;8.50;99.90;;;;;;5051791;28;20037;-79
2022/04/15 05:25:07;;;;;;;3.30;3.00;;;8.40;99.90;;;;;;5051993;28;20090;-78
2022/04/15 05:27:32;;;;;;;3.60;3.17;;;8.20;99.90;;;;;;5051467;28;20049;-78
2022/04/15 05:29:58;;;;;;;7.88;3.85;;;8.20;99.90;;;;;;5052261;28;20375;-78
2022/04/15 05:32:24;;;;;;;3.63;3.20;;;8.10;99.90;;;;;;5048515;28;20041;-78
2022/04/15 05:34:50;;;;;;;5.15;3.50;;;8.00;99.90;;;;;;5051491;28;20041;-79
2022/04/15 05:37:15;;;;;;;4.13;3.70;;;8.10;99.90;;;;;;5032720;28;20059;-79
2022/04/15 05:39:41;;;;;;;5.22;3.22;;;8.00;99.90;;;;;;5049756;28;20402;-79
2022/04/15 05:42:07;;;;;;;3.80;3.50;;;8.00;99.90;;;;;;5033114;28;20052;-78
2022/04/15 05:44:32;;;;;;;3.80;3.50;;;7.90;99.90;;;;;;5050473;28;20055;-78
2022/04/15 05:46:58;;;;;;;3.90;3.58;;;8.00;99.90;;;;;;5049260;28;20041;-76
2022/04/15 05:49:25;;;;;;;4.90;4.22;;;8.10;99.90;;;;;;5040839;28;20051;-78
2022/04/15 05:51:50;;;;;;;5.90;4.78;;;8.10;99.90;;;;;;5044349;28;20520;-78
2022/04/15 05:54:16;;;;;;;5.88;4.68;;;8.20;99.90;;;;;;5050094;28;20087;-79
2022/04/15 05:56:42;;;;;;;5.55;5.07;;;8.20;99.90;;;;;;5049849;28;20044;-79
2022/04/15 05:59:08;;;;;;;6.75;5.15;;;8.20;99.90;;;;;;5027588;28;20457;-79
2022/04/15 06:01:34;;;;;;;6.20;5.18;;;8.00;99.90;;;;;;5051146;28;20051;-79
2022/04/15 06:03:59;;;;;;;6.88;5.25;;;8.10;99.90;;;;;;5049995;28;20067;-80
2022/04/15 06:06:26;;;;;;;7.35;4.80;;;8.10;99.90;;;;;;5058946;28;20515;-79
2022/04/15 06:08:51;;;;;;;6.03;5.40;;;8.10;99.90;;;;;;5062328;28;20049;-77
2022/04/15 06:11:17;;;;;;;6.43;5.32;;;8.20;99.90;;;;;;5051410;28;20037;-79
2022/04/15 06:13:47;;;;;;;6.35;5.57;;;8.20;99.90;;;;;;5049198;28;20442;-79
2022/04/15 06:16:16;;;;;;;6.25;5.65;;;8.20;99.90;;;;;;5050969;28;20041;-79
2022/04/15 06:18:42;;;;;;;6.88;5.43;;;8.20;99.90;;;;;;5050543;28;20436;-80
2022/04/15 06:21:08;;;;;;;7.20;6.10;;;8.20;99.90;;;;;;5048125;28;20045;-79
2022/04/15 06:23:33;;;;;;;8.90;6.47;;;8.10;99.90;;;;;;5029334;28;20044;-79
2022/04/15 06:25:59;;;;;;;9.38;6.55;;;8.00;99.90;;;;;;5027102;28;20037;-79
2022/04/15 06:28:24;;;;;;;8.98;6.38;;;8.10;99.90;;;;;;5047065;28;20037;-78
2022/04/15 06:30:50;;;;;;;10.07;6.55;;;8.20;99.90;;;;;;5049096;28;20112;-79
2022/04/15 06:33:18;;;;;;;8.43;6.55;;;8.20;99.90;;;;;;5047634;28;20032;-79
2022/04/15 06:35:44;;;;;;;6.30;5.53;;;8.30;99.90;;;;;;5047771;28;20037;-79
2022/04/15 06:38:10;;;;;;;8.93;6.90;;;8.30;99.90;;;;;;5050234;28;20066;-79
2022/04/15 06:40:38;;;;;;;10.50;6.45;;;8.40;99.90;;;;;;5050057;28;20487;-79
2022/04/15 06:43:04;;;;;;;10.60;6.80;;;8.40;99.90;;;;;;5031232;28;20036;-78
2022/04/15 06:45:30;;;;;;;12.20;7.75;;;8.40;99.90;;;;;;5049628;28;20045;-79
2022/04/15 06:47:55;;;;;;;10.70;8.25;;;8.40;99.90;;;;;;5050042;28;20041;-79
2022/04/15 06:50:21;;;;;;;9.80;7.45;;;8.40;99.90;;;;;;5047383;28;20049;-79
2022/04/15 06:52:47;;;;;;;8.68;7.50;;;8.40;99.90;;;;;;5049018;28;20045;-78
2022/04/15 06:55:13;;;;;;;8.63;7.72;;;8.40;99.90;;;;;;5050199;28;20059;-79
2022/04/15 06:57:38;;;;;;;13.95;8.45;;;8.50;99.90;;;;;;5049465;28;20041;-79
2022/04/15 07:00:05;;;;;;;13.07;9.05;;;8.60;99.90;;;;;;5032094;28;20044;-78
2022/04/15 07:02:31;;;;;;;16.77;8.80;;;8.60;99.90;;;;;;5050728;28;20029;-78
2022/04/15 07:04:56;;;;;;;10.85;8.45;;;8.70;99.90;;;;;;5047483;28;20040;-79
2022/04/15 07:07:22;;;;;;;12.65;7.95;;;8.70;99.90;;;;;;5047808;28;20090;-79
2022/04/15 07:09:50;;;;;;;12.52;8.95;;;8.80;99.90;;;;;;5046359;28;20093;-78
2022/04/15 07:12:17;;;;;;;10.68;8.73;;;8.80;99.90;;;;;;5031261;28;20040;-79
2022/04/15 07:14:43;;;;;;;14.25;9.90;;;8.80;99.90;;;;;;5048316;28;20061;-78
2022/04/15 07:17:08;;;;;;;14.25;9.02;;;8.80;99.90;;;;;;5049261;28;20134;-78
2022/04/15 07:19:34;;;;;;;15.27;10.93;;;8.90;99.90;;;;;;5046847;28;20041;-78
2022/04/15 07:21:59;;;;;;;12.05;10.27;;;9.00;99.90;;;;;;5047106;28;20048;-79
2022/04/15 07:24:27;;;;;;;12.98;9.63;;;9.00;99.90;;;;;;5043583;28;20056;-78
2022/04/15 07:26:53;;;;;;;24.17;10.23;;;9.10;99.90;;;;;;5031903;28;20064;-78
2022/04/15 07:29:20;;;;;;;19.33;10.45;;;9.10;99.90;;;;;;5049068;28;20086;-78
2022/04/15 07:31:46;;;;;;;15.25;10.85;;;9.10;99.90;;;;;;5047226;28;20482;-79
2022/04/15 07:34:11;;;;;;;13.93;9.90;;;9.20;99.90;;;;;;5031641;28;20449;-78
2022/04/15 07:39:06;;;;;;;16.30;10.68;;;9.20;99.90;;;;;;5047827;28;20052;-80
2022/04/15 07:41:36;;;;;;;14.93;11.02;;;9.20;99.90;;;;;;5025458;28;20059;-80
2022/04/15 07:44:03;;;;;;;16.63;10.93;;;9.30;99.90;;;;;;5037609;28;20037;-80
2022/04/15 07:46:29;;;;;;;13.85;11.02;;;9.40;99.90;;;;;;5049343;28;20037;-81
2022/04/15 07:48:54;;;;;;;15.50;10.60;;;9.40;99.90;;;;;;5050256;28;20056;-80
2022/04/15 07:51:20;;;;;;;13.77;10.82;;;9.50;99.90;;;;;;5049963;28;20135;-80
2022/04/15 07:53:46;;;;;;;14.32;10.90;;;9.50;99.90;;;;;;5050015;28;20124;-80
2022/04/15 07:56:11;;;;;;;14.82;10.13;;;9.60;99.90;;;;;;5050108;28;20037;-80
2022/04/15 07:58:37;;;;;;;17.98;10.40;;;9.50;99.90;;;;;;5042977;28;20051;-80
2022/04/15 08:01:02;;;;;;;14.68;10.07;;;9.50;99.90;;;;;;5050329;28;20120;-80
2022/04/15 08:03:28;;;;;;;13.98;9.27;;;9.30;99.90;;;;;;5050038;28;20037;-81
2022/04/15 08:05:54;;;;;;;16.00;9.05;;;9.10;99.90;;;;;;5048527;28;20384;-80
2022/04/15 08:08:20;;;;;;;13.70;8.95;;;9.10;99.90;;;;;;5049750;28;20456;-81
2022/04/15 08:10:47;;;;;;;13.57;9.07;;;9.10;99.90;;;;;;5044953;28;20571;-80
2022/04/15 08:13:12;;;;;;;8.77;7.88;;;9.10;99.90;;;;;;5053778;28;20041;-79
2022/04/15 08:15:38;;;;;;;10.20;7.05;;;9.10;99.90;;;;;;5047805;28;20045;-80
2022/04/15 08:18:04;;;;;;;9.30;7.10;;;9.10;99.90;;;;;;5033217;28;20039;-80
2022/04/15 08:20:29;;;;;;;10.32;6.60;;;9.20;99.90;;;;;;5051152;28;20060;-80
2022/04/15 08:22:55;;;;;;;8.52;6.85;;;9.50;99.90;;;;;;5031550;28;20459;-79
2022/04/15 08:25:21;;;;;;;12.02;6.82;;;9.50;99.90;;;;;;5051643;28;20055;-80
2022/04/15 08:27:46;;;;;;;11.13;7.35;;;9.60;99.90;;;;;;5051544;28;20391;-80
2022/04/15 08:30:12;;;;;;;7.95;6.50;;;9.60;99.90;;;;;;5036800;28;20067;-80
2022/04/15 08:32:37;;;;;;;8.57;6.25;;;9.70;99.90;;;;;;5064548;28;20079;-80
2022/04/15 08:35:05;;;;;;;7.28;5.97;;;9.70;99.90;;;;;;5053020;28;20044;-80
2022/04/15 08:37:31;;;;;;;8.10;5.70;;;9.80;99.90;;;;;;5072777;28;20048;-79
2022/04/15 08:39:57;;;;;;;9.75;5.72;;;9.70;99.90;;;;;;5059066;28;20360;-80
2022/04/15 08:42:23;;;;;;;6.38;5.35;;;9.90;99.90;;;;;;5036784;28;20041;-80
2022/04/15 08:44:52;;;;;;;9.52;5.13;;;9.90;99.90;;;;;;5053097;28;20091;-80
2022/04/15 08:47:19;;;;;;;9.48;5.22;;;9.70;99.90;;;;;;5066192;28;20447;-80
2022/04/15 08:49:45;;;;;;;7.47;5.72;;;10.00;99.90;;;;;;5043988;28;20040;-80
2022/04/15 08:52:15;;;;;;;7.03;4.82;;;10.00;99.90;;;;;;5051211;28;20057;-80
2022/04/15 08:54:41;;;;;;;8.57;5.07;;;10.00;99.90;;;;;;5022911;28;20057;-80
2022/04/15 08:57:07;;;;;;;9.45;5.97;;;10.10;99.90;;;;;;5044890;28;20148;-79
2022/04/15 08:59:33;;;;;;;6.25;5.18;;;10.30;99.90;;;;;;5051374;28;20048;-79
2022/04/15 09:01:58;;;;;;;9.35;6.88;;;10.20;99.90;;;;;;5040462;28;20049;-79
2022/04/15 09:04:25;;;;;;;8.18;6.15;;;10.00;99.90;;;;;;5043464;28;20036;-79
2022/04/15 09:06:56;;;;;;;8.65;5.90;;;10.10;99.90;;;;;;5026678;28;20044;-80
2022/04/15 09:09:29;;;;;;;8.02;6.30;;;10.30;99.90;;;;;;5027699;28;20127;-79
2022/04/15 09:11:56;;;;;;;8.15;6.28;;;10.40;99.90;;;;;;5032038;28;20049;-79
2022/04/15 09:14:23;;;;;;;7.55;6.65;;;10.50;99.90;;;;;;5047327;28;20049;-79
2022/04/15 09:16:49;;;;;;;10.68;6.65;;;10.60;99.90;;;;;;5051172;28;20676;-79
2022/04/15 09:19:16;;;;;;;9.90;6.28;;;10.60;99.90;;;;;;5051648;28;20036;-79
2022/04/15 09:21:49;;;;;;;10.18;6.63;;;10.80;99.90;;;;;;5049903;28;21071;-79
2022/04/15 09:24:15;;;;;;;9.45;6.63;;;10.80;99.90;;;;;;5049827;28;20049;-79
2022/04/15 09:26:44;;;;;;;7.18;6.40;;;10.80;99.90;;;;;;5053038;28;20059;-79
2022/04/15 09:29:12;;;;;;;11.40;6.95;;;11.20;99.90;;;;;;5053813;28;20045;-79
2022/04/15 09:31:37;;;;;;;7.20;6.43;;;11.30;99.90;;;;;;5033779;28;20058;-79
2022/04/15 09:34:06;;;;;;;7.82;6.45;;;11.70;99.90;;;;;;5049331;28;20441;-79
2022/04/15 09:36:38;;;;;;;7.57;6.47;;;11.80;99.90;;;;;;5050880;28;20056;-79
2022/04/15 09:39:14;;;;;;;7.75;5.68;;;11.80;99.90;;;;;;5053049;28;20047;-80
2022/04/15 09:41:42;;;;;;;8.57;6.20;;;12.10;99.90;;;;;;5063802;28;20037;-80
2022/04/15 09:44:11;;;;;;;8.65;5.50;;;11.50;99.90;;;;;;5045010;28;20069;-80
2022/04/15 09:46:39;;;;;;;8.98;6.18;;;11.60;99.90;;;;;;5050988;28;20045;-80
2022/04/15 09:49:07;;;;;;;6.78;6.07;;;11.80;99.90;;;;;;5035229;28;20037;-80
2022/04/15 09:51:51;;;;;;;7.28;6.00;;;12.00;99.90;;;;;;5050671;28;20790;-80
2022/04/15 09:54:27;;;;;;;6.97;6.28;;;11.90;99.90;;;;;;5049454;28;20098;-80
2022/04/15 09:56:57;;;;;;;7.38;5.90;;;11.80;99.90;;;;;;5021461;28;21070;-79
2022/04/15 09:59:25;;;;;;;8.88;6.07;;;11.50;99.90;;;;;;5034247;28;20063;-80
2022/04/15 10:02:02;;;;;;;7.78;5.40;;;11.60;99.90;;;;;;5049415;28;20048;-80
2022/04/15 10:04:28;;;;;;;6.75;6.03;;;11.80;99.90;;;;;;5047921;28;20123;-80
2022/04/15 10:06:54;;;;;;;9.20;6.13;;;11.60;99.90;;;;;;5045448;28;20049;-80
2022/04/15 10:09:21;;;;;;;12.05;6.13;;;11.50;99.90;;;;;;5051714;28;20037;-80
2022/04/15 10:11:48;;;;;;;6.40;5.90;;;11.60;99.90;;;;;;5051686;28;20079;-80
2022/04/15 10:14:15;;;;;;;8.20;6.55;;;11.60;99.90;;;;;;5045221;28;20577;-80
2022/04/15 10:16:42;;;;;;;7.80;6.35;;;11.70;99.90;;;;;;5045236;28;20041;-79
2022/04/15 10:19:09;;;;;;;9.05;6.43;;;11.50;99.90;;;;;;5046447;28;20048;-80
2022/04/15 10:21:41;;;;;;;7.63;6.32;;;11.40;99.90;;;;;;5043756;28;20117;-80
2022/04/15 10:24:09;;;;;;;7.22;6.20;;;11.40;99.90;;;;;;5043731;28;20060;-80
2022/04/15 10:26:39;;;;;;;8.88;6.18;;;11.70;99.90;;;;;;5046940;28;20057;-80
2022/04/15 10:29:05;;;;;;;6.80;6.20;;;11.90;99.90;;;;;;5031301;28;20052;-80
2022/04/15 10:31:52;;;;;;;7.82;6.88;;;12.10;99.90;;;;;;5047013;28;20163;-79
2022/04/15 10:34:19;;;;;;;7.85;6.70;;;12.10;99.90;;;;;;5039194;28;20091;-80
2022/04/15 10:36:47;;;;;;;9.82;6.57;;;11.50;99.90;;;;;;5047854;28;20045;-80
2022/04/15 10:39:16;;;;;;;7.95;6.78;;;11.10;99.90;;;;;;5052613;28;20084;-80
2022/04/15 10:41:42;;;;;;;7.43;6.20;;;11.20;99.90;;;;;;5056322;28;20032;-80
2022/04/15 10:44:36;;;;;;;8.73;5.95;;;11.30;99.90;;;;;;5039413;28;20579;-80
2022/04/15 10:47:09;;;;;;;10.80;6.68;;;11.60;99.90;;;;;;5028470;28;20041;-80
2022/04/15 10:49:39;;;;;;;9.48;6.40;;;11.80;99.90;;;;;;5050828;28;20071;-80
2022/04/15 10:52:21;;;;;;;8.13;6.10;;;11.60;99.90;;;;;;5028060;28;20064;-80
2022/04/15 10:54:51;;;;;;;8.15;6.45;;;11.30;99.90;;;;;;5029227;28;20040;-80
2022/04/15 10:57:18;;;;;;;8.40;6.10;;;11.10;99.90;;;;;;5048471;28;20048;-80
2022/04/15 11:02:44;;;;;;;8.63;6.20;;;11.40;99.90;;;;;;5049545;28;20048;-80
2022/04/15 11:05:13;;;;;;;6.82;5.78;;;11.80;99.90;;;;;;5050726;28;20544;-80
2022/04/15 11:07:47;;;;;;;7.00;6.28;;;12.00;99.90;;;;;;5050265;28;20040;-80
2022/04/15 11:10:18;;;;;;;9.43;6.93;;;12.10;99.90;;;;;;5046785;28;20040;-79
2022/04/15 11:12:44;;;;;;;9.45;7.47;;;11.50;99.90;;;;;;5054689;28;20041;-78
2022/04/15 11:15:10;;;;;;;19.15;7.40;;;11.40;99.90;;;;;;5050392;28;20041;-80
2022/04/15 11:17:44;;;;;;;8.25;6.28;;;11.50;99.90;;;;;;5050061;28;20356;-79
2022/04/15 11:20:10;;;;;;;6.38;5.75;;;11.70;99.90;;;;;;5032281;28;20072;-79
2022/04/15 11:22:40;;;;;;;6.70;6.00;;;11.70;99.90;;;;;;5049578;28;20083;-80
2022/04/15 11:25:11;;;;;;;9.75;6.00;;;11.90;99.90;;;;;;5044156;28;20086;-80
2022/04/15 11:27:39;;;;;;;7.20;5.88;;;12.10;99.90;;;;;;5044325;28;20060;-79
2022/04/15 11:30:10;;;;;;;6.40;5.80;;;11.90;99.90;;;;;;5051688;28;20103;-79
2022/04/15 11:32:48;;;;;;;7.00;6.30;;;11.70;99.90;;;;;;5068094;28;20048;-80
2022/04/15 11:35:46;;;;;;;8.13;6.25;;;11.90;99.90;;;;;;5049035;28;20037;-79
2022/04/15 11:38:12;;;;;;;7.30;6.13;;;11.90;99.90;;;;;;5014149;28;20057;-79
2022/04/15 11:40:43;;;;;;;7.75;5.57;;;11.80;99.90;;;;;;5052010;28;20041;-79
2022/04/15 11:43:09;;;;;;;8.20;6.60;;;11.90;99.90;;;;;;5033488;28;20486;-80
2022/04/15 11:45:42;;;;;;;7.47;6.50;;;11.90;99.90;;;;;;5049788;28;20044;-80
2022/04/15 11:48:34;;;;;;;7.75;6.90;;;11.60;99.90;;;;;;5044760;28;20126;-80
2022/04/15 11:50:59;;;;;;;9.15;6.93;;;11.20;99.90;;;;;;5049529;28;20406;-80
2022/04/15 11:53:25;;;;;;;8.23;7.22;;;11.20;99.90;;;;;;5050588;28;20049;-80
2022/04/15 11:55:53;;;;;;;8.05;6.60;;;11.20;99.90;;;;;;5057993;28;20050;-80
2022/04/15 11:58:21;;;;;;;9.57;6.82;;;11.20;99.90;;;;;;5035110;28;20045;-80
2022/04/15 12:00:51;;;;;;;8.43;7.10;;;10.80;99.90;;;;;;5061462;28;20045;-80
2022/04/15 12:03:18;;;;;;;7.70;6.90;;;10.80;99.90;;;;;;5035799;28;20037;-80
2022/04/15 12:05:43;;;;;;;10.45;7.20;;;10.80;99.90;;;;;;5060691;22;20033;-79
2022/04/15 12:08:09;;;;;;;9.68;6.70;;;10.80;99.90;;;;;;5042929;28;20049;-79
2022/04/15 12:10:41;;;;;;;7.43;6.28;;;10.80;99.90;;;;;;5030638;28;20041;-79
2022/04/15 12:13:07;;;;;;;8.63;6.75;;;11.00;99.90;;;;;;5052084;28;20052;-78
2022/04/15 12:15:36;;;;;;;8.27;7.10;;;11.00;99.90;;;;;;5050271;28;20037;-80
2022/04/15 12:18:06;;;;;;;7.75;6.95;;;10.80;99.90;;;;;;5049088;28;20048;-80
2022/04/15 12:20:33;;;;;;;9.68;7.43;;;10.90;99.90;;;;;;5048267;28;20041;-79
2022/04/15 12:23:00;;;;;;;7.88;7.05;;;11.10;99.90;;;;;;5051104;28;20056;-78
2022/04/15 12:25:26;;;;;;;8.52;7.40;;;11.10;99.90;;;;;;5041542;28;20071;-79
2022/04/15 12:27:53;;;;;;;15.90;13.63;;;11.00;99.90;;;;;;5052215;28;20478;-79
2022/04/15 12:30:39;;;;;;;11.15;9.98;;;10.90;99.90;;;;;;5050817;28;20479;-79
2022/04/15 12:33:11;;;;;;;36.35;32.45;;;10.80;99.90;;;;;;5035021;28;20572;-79
2022/04/15 12:35:37;;;;;;;35.47;28.83;;;10.60;99.90;;;;;;5047602;28;20107;-77
2022/04/15 12:38:03;;;;;;;41.22;29.65;;;10.60;99.90;;;;;;5049073;28;20041;-79
2022/04/15 12:40:32;;;;;;;10.88;7.53;;;10.60;99.90;;;;;;5019386;28;20095;-79
2022/04/15 12:43:13;;;;;;;12.57;11.35;;;10.70;99.90;;;;;;5046722;28;20037;-79
2022/04/15 12:45:57;;;;;;;14.82;13.38;;;10.50;99.90;;;;;;5037050;28;20044;-76
2022/04/15 12:48:23;;;;;;;10.48;7.32;;;10.60;99.90;;;;;;5026871;28;20083;-78
2022/04/15 12:50:58;;;;;;;26.85;24.63;;;10.70;99.90;;;;;;5050837;28;20052;-79
2022/04/15 12:53:24;;;;;;;10.18;9.25;;;10.80;99.90;;;;;;5050398;28;20044;-78
2022/04/15 12:55:52;;;;;;;8.60;7.70;;;10.70;99.90;;;;;;5049037;28;20037;-79